TAI448 MSLP-MHPR
Flight info
| Callsign | TAI448 |
|---|---|
| Flight time | 0h 32m |
| Altitude | 21000 |
| Route | VITAN2W VITAN DCT KARID KARID1B |
| Aircraft | A20N/M-SDE2E3FGHIRWXY/LB1 |
Departure
| Time | 2026-05-04 00:44 |
|---|---|
| Airport | El Salvador International Airport Saint Óscar Arnulfo Romero y Galdámez (MSLP) |
Arrival
| Time | 2026-05-04 01:16 |
|---|---|
| Airport | Palmerola International Airport (MHPR) |
| Time | Latitude | Longitude | Altitude | Speed | Heading |
|---|---|---|---|---|---|
| 2026-05-04 00:07 | 13.44392 | -89.06068 | 91 ft | 0 kts | 161° |
| 2026-05-04 00:34 | 13.44401 | -89.06071 | 93 ft | 3 kts | 164° |
| 2026-05-04 00:34 | 13.44425 | -89.06076 | 91 ft | 3 kts | 185° |
| 2026-05-04 00:34 | 13.44446 | -89.06069 | 93 ft | 3 kts | 235° |
| 2026-05-04 00:34 | 13.44451 | -89.06059 | 91 ft | 1 kts | 250° |
| 2026-05-04 00:35 | 13.44452 | -89.06058 | 91 ft | 0 kts | 250° |
| 2026-05-04 00:39 | 13.44451 | -89.06058 | 91 ft | 1 kts | 250° |
| 2026-05-04 00:39 | 13.44427 | -89.06108 | 93 ft | 17 kts | 223° |
| 2026-05-04 00:39 | 13.44352 | -89.06100 | 91 ft | 7 kts | 175° |
| 2026-05-04 00:39 | 13.44249 | -89.06095 | 91 ft | 21 kts | 166° |
| 2026-05-04 00:40 | 13.44206 | -89.06034 | 91 ft | 7 kts | 46° |
| 2026-05-04 00:40 | 13.44228 | -89.05964 | 94 ft | 17 kts | 75° |
| 2026-05-04 00:40 | 13.44170 | -89.05870 | 94 ft | 10 kts | 96° |
| 2026-05-04 00:40 | 13.44202 | -89.05790 | 93 ft | 17 kts | 70° |
| 2026-05-04 00:41 | 13.44259 | -89.05632 | 93 ft | 28 kts | 70° |
| 2026-05-04 00:41 | 13.44330 | -89.05434 | 93 ft | 30 kts | 70° |
| 2026-05-04 00:41 | 13.44403 | -89.05226 | 93 ft | 31 kts | 70° |
| 2026-05-04 00:41 | 13.44453 | -89.05087 | 94 ft | 32 kts | 69° |
| 2026-05-04 00:42 | 13.44625 | -89.04606 | 92 ft | 32 kts | 71° |
| 2026-05-04 00:42 | 13.44703 | -89.04387 | 93 ft | 32 kts | 70° |
| 2026-05-04 00:42 | 13.44725 | -89.04252 | 94 ft | 13 kts | 122° |
| 2026-05-04 00:43 | 13.44648 | -89.04218 | 98 ft | 11 kts | 164° |
| 2026-05-04 00:43 | 13.44582 | -89.04214 | 99 ft | 9 kts | 213° |
| 2026-05-04 00:43 | 13.44561 | -89.04255 | 100 ft | 0 kts | 251° |
| 2026-05-04 00:43 | 13.44530 | -89.04345 | 99 ft | 46 kts | 249° |
| 2026-05-04 00:44 | 13.44335 | -89.04897 | 98 ft | 113 kts | 250° |
| 2026-05-04 00:44 | 13.44010 | -89.05818 | 244 ft | 152 kts | 250° |
| 2026-05-04 00:44 | 13.43641 | -89.06871 | 937 ft | 161 kts | 250° |
| 2026-05-04 00:44 | 13.43257 | -89.07947 | 1814 ft | 157 kts | 249° |
| 2026-05-04 00:45 | 13.42878 | -89.08984 | 2380 ft | 161 kts | 250° |
| 2026-05-04 00:45 | 13.42465 | -89.10131 | 2677 ft | 181 kts | 249° |
| 2026-05-04 00:45 | 13.41920 | -89.11406 | 3022 ft | 209 kts | 241° |
| 2026-05-04 00:45 | 13.41066 | -89.12715 | 3582 ft | 232 kts | 230° |
| 2026-05-04 00:46 | 13.39879 | -89.13938 | 4222 ft | 253 kts | 219° |
| 2026-05-04 00:46 | 13.38343 | -89.14959 | 4859 ft | 272 kts | 206° |
| 2026-05-04 00:46 | 13.36538 | -89.15621 | 5819 ft | 277 kts | 193° |
| 2026-05-04 00:46 | 13.34616 | -89.15855 | 6819 ft | 281 kts | 180° |
| 2026-05-04 00:47 | 13.32652 | -89.15627 | 7720 ft | 288 kts | 167° |
| 2026-05-04 00:47 | 13.30749 | -89.14908 | 8568 ft | 295 kts | 153° |
| 2026-05-04 00:47 | 13.29039 | -89.13710 | 9404 ft | 301 kts | 138° |
| 2026-05-04 00:47 | 13.27651 | -89.12085 | 10261 ft | 305 kts | 122° |
| 2026-05-04 00:48 | 13.26712 | -89.10175 | 11193 ft | 304 kts | 108° |
| 2026-05-04 00:48 | 13.26256 | -89.08066 | 12174 ft | 303 kts | 93° |
| 2026-05-04 00:48 | 13.26321 | -89.05916 | 13161 ft | 301 kts | 79° |
| 2026-05-04 00:48 | 13.26895 | -89.03843 | 14013 ft | 304 kts | 66° |
| 2026-05-04 00:49 | 13.27901 | -89.01891 | 14645 ft | 317 kts | 60° |
| 2026-05-04 00:49 | 13.29025 | -88.99840 | 14864 ft | 341 kts | 60° |
| 2026-05-04 00:49 | 13.30224 | -88.97643 | 14993 ft | 361 kts | 60° |
| 2026-05-04 00:49 | 13.31455 | -88.95371 | 15004 ft | 364 kts | 61° |
| 2026-05-04 00:50 | 13.32675 | -88.93105 | 15006 ft | 363 kts | 61° |
| 2026-05-04 00:50 | 13.33899 | -88.90824 | 15003 ft | 363 kts | 61° |
| 2026-05-04 00:50 | 13.35121 | -88.88553 | 15004 ft | 366 kts | 60° |
| 2026-05-04 00:50 | 13.36344 | -88.86275 | 15006 ft | 361 kts | 61° |
| 2026-05-04 00:51 | 13.37538 | -88.84048 | 15005 ft | 360 kts | 61° |
| 2026-05-04 00:51 | 13.38753 | -88.81771 | 15004 ft | 364 kts | 61° |
| 2026-05-04 00:51 | 13.39970 | -88.79499 | 15005 ft | 362 kts | 61° |
| 2026-05-04 00:51 | 13.41187 | -88.77230 | 15004 ft | 363 kts | 61° |
| 2026-05-04 00:52 | 13.42404 | -88.74961 | 15005 ft | 363 kts | 61° |
| 2026-05-04 00:52 | 13.43622 | -88.72688 | 15004 ft | 363 kts | 61° |
| 2026-05-04 00:52 | 13.44837 | -88.70421 | 15021 ft | 363 kts | 61° |
| 2026-05-04 00:52 | 13.46054 | -88.68151 | 15053 ft | 363 kts | 61° |
| 2026-05-04 00:53 | 13.47271 | -88.65880 | 15062 ft | 363 kts | 61° |
| 2026-05-04 00:53 | 13.48488 | -88.63608 | 15063 ft | 362 kts | 61° |
| 2026-05-04 00:53 | 13.49703 | -88.61339 | 15072 ft | 363 kts | 61° |
| 2026-05-04 00:53 | 13.50917 | -88.59068 | 15068 ft | 363 kts | 61° |
| 2026-05-04 00:54 | 13.52132 | -88.56797 | 15072 ft | 363 kts | 61° |
| 2026-05-04 00:54 | 13.53296 | -88.54499 | 15078 ft | 362 kts | 66° |
| 2026-05-04 00:54 | 13.54278 | -88.52114 | 15079 ft | 362 kts | 67° |
| 2026-05-04 00:54 | 13.55267 | -88.49732 | 15079 ft | 362 kts | 66° |
| 2026-05-04 00:55 | 13.56260 | -88.47353 | 15079 ft | 362 kts | 66° |
| 2026-05-04 00:55 | 13.57255 | -88.44969 | 15079 ft | 362 kts | 66° |
| 2026-05-04 00:55 | 13.58240 | -88.42613 | 15088 ft | 362 kts | 66° |
| 2026-05-04 00:55 | 13.59234 | -88.40235 | 15088 ft | 362 kts | 66° |
| 2026-05-04 00:56 | 13.60227 | -88.37856 | 15089 ft | 362 kts | 66° |
| 2026-05-04 00:56 | 13.61221 | -88.35473 | 15088 ft | 362 kts | 66° |
| 2026-05-04 00:56 | 13.62212 | -88.33093 | 15088 ft | 362 kts | 66° |
| 2026-05-04 00:56 | 13.63206 | -88.30709 | 15088 ft | 362 kts | 66° |
| 2026-05-04 00:57 | 13.64200 | -88.28323 | 15096 ft | 362 kts | 66° |
| 2026-05-04 00:57 | 13.65194 | -88.25940 | 15097 ft | 362 kts | 66° |
| 2026-05-04 00:57 | 13.66176 | -88.23582 | 15097 ft | 362 kts | 66° |
| 2026-05-04 00:57 | 13.67169 | -88.21195 | 15097 ft | 362 kts | 66° |
| 2026-05-04 00:58 | 13.68158 | -88.18816 | 15097 ft | 360 kts | 66° |
| 2026-05-04 00:58 | 13.69153 | -88.16441 | 15095 ft | 363 kts | 66° |
| 2026-05-04 00:58 | 13.70147 | -88.14051 | 15105 ft | 362 kts | 66° |
| 2026-05-04 00:58 | 13.71137 | -88.11667 | 15107 ft | 362 kts | 66° |
| 2026-05-04 00:59 | 13.72132 | -88.09284 | 15090 ft | 361 kts | 66° |
| 2026-05-04 00:59 | 13.73123 | -88.06905 | 15088 ft | 362 kts | 66° |
| 2026-05-04 00:59 | 13.74110 | -88.04517 | 15088 ft | 362 kts | 67° |
| 2026-05-04 00:59 | 13.75095 | -88.02131 | 15091 ft | 362 kts | 66° |
| 2026-05-04 01:00 | 13.76068 | -87.99780 | 15098 ft | 362 kts | 66° |
| 2026-05-04 01:00 | 13.77056 | -87.97398 | 15098 ft | 362 kts | 66° |
| 2026-05-04 01:00 | 13.78047 | -87.95008 | 15096 ft | 362 kts | 66° |
| 2026-05-04 01:00 | 13.79034 | -87.92627 | 15107 ft | 362 kts | 66° |
| 2026-05-04 01:01 | 13.80022 | -87.90242 | 15105 ft | 363 kts | 67° |
| 2026-05-04 01:01 | 13.81010 | -87.87853 | 15111 ft | 363 kts | 66° |
| 2026-05-04 01:01 | 13.82000 | -87.85464 | 14959 ft | 363 kts | 66° |
| 2026-05-04 01:01 | 13.82987 | -87.83087 | 14722 ft | 360 kts | 66° |
| 2026-05-04 01:02 | 13.83958 | -87.80747 | 14617 ft | 349 kts | 67° |
| 2026-05-04 01:02 | 13.84888 | -87.78500 | 14483 ft | 335 kts | 67° |
| 2026-05-04 01:02 | 13.85782 | -87.76339 | 14368 ft | 321 kts | 67° |
| 2026-05-04 01:02 | 13.86596 | -87.74255 | 14246 ft | 307 kts | 71° |
| 2026-05-04 01:03 | 13.87225 | -87.72206 | 14126 ft | 293 kts | 72° |
| 2026-05-04 01:03 | 13.87834 | -87.70249 | 14023 ft | 280 kts | 72° |
| 2026-05-04 01:03 | 13.88420 | -87.68382 | 13923 ft | 268 kts | 72° |
| 2026-05-04 01:03 | 13.88986 | -87.66580 | 13699 ft | 261 kts | 72° |
| 2026-05-04 01:04 | 13.89538 | -87.64820 | 13446 ft | 256 kts | 72° |
| 2026-05-04 01:04 | 13.90081 | -87.63083 | 13197 ft | 255 kts | 72° |
| 2026-05-04 01:04 | 13.90611 | -87.61365 | 12954 ft | 255 kts | 72° |
| 2026-05-04 01:04 | 13.91141 | -87.59634 | 12701 ft | 252 kts | 72° |
| 2026-05-04 01:05 | 13.91667 | -87.57909 | 12452 ft | 252 kts | 72° |
| 2026-05-04 01:05 | 13.92186 | -87.56198 | 12206 ft | 249 kts | 72° |
| 2026-05-04 01:05 | 13.92707 | -87.54487 | 11954 ft | 251 kts | 72° |
| 2026-05-04 01:05 | 13.93232 | -87.52777 | 11707 ft | 249 kts | 72° |
| 2026-05-04 01:06 | 13.93753 | -87.51076 | 11457 ft | 250 kts | 72° |
| 2026-05-04 01:06 | 13.94274 | -87.49376 | 11197 ft | 248 kts | 72° |
| 2026-05-04 01:06 | 13.94792 | -87.47681 | 10954 ft | 249 kts | 72° |
| 2026-05-04 01:06 | 13.95387 | -87.46037 | 10698 ft | 248 kts | 58° |
| 2026-05-04 01:07 | 13.96597 | -87.44803 | 10457 ft | 249 kts | 28° |
| 2026-05-04 01:07 | 13.98261 | -87.44353 | 10205 ft | 250 kts | 359° |
| 2026-05-04 01:07 | 13.99931 | -87.44816 | 9967 ft | 251 kts | 332° |
| 2026-05-04 01:07 | 14.01439 | -87.45721 | 9678 ft | 251 kts | 330° |
| 2026-05-04 01:08 | 14.02937 | -87.46641 | 9352 ft | 250 kts | 330° |
| 2026-05-04 01:08 | 14.04430 | -87.47554 | 9032 ft | 249 kts | 330° |
| 2026-05-04 01:08 | 14.05927 | -87.48459 | 8710 ft | 248 kts | 330° |
| 2026-05-04 01:08 | 14.07409 | -87.49348 | 8456 ft | 244 kts | 330° |
| 2026-05-04 01:09 | 14.08869 | -87.50221 | 8367 ft | 241 kts | 330° |
| 2026-05-04 01:09 | 14.10283 | -87.51087 | 8315 ft | 230 kts | 329° |
| 2026-05-04 01:09 | 14.11600 | -87.51975 | 8267 ft | 221 kts | 325° |
| 2026-05-04 01:09 | 14.12824 | -87.52882 | 8156 ft | 214 kts | 324° |
| 2026-05-04 01:10 | 14.14013 | -87.53767 | 7905 ft | 210 kts | 325° |
| 2026-05-04 01:10 | 14.15199 | -87.54640 | 7662 ft | 205 kts | 325° |
| 2026-05-04 01:10 | 14.16283 | -87.55439 | 7587 ft | 185 kts | 325° |
| 2026-05-04 01:10 | 14.17296 | -87.56169 | 7463 ft | 171 kts | 327° |
| 2026-05-04 01:11 | 14.18266 | -87.56823 | 7227 ft | 165 kts | 328° |
| 2026-05-04 01:11 | 14.19230 | -87.57463 | 6922 ft | 165 kts | 328° |
| 2026-05-04 01:11 | 14.20188 | -87.58101 | 6607 ft | 164 kts | 327° |
| 2026-05-04 01:11 | 14.21140 | -87.58738 | 6302 ft | 163 kts | 330° |
| 2026-05-04 01:12 | 14.22197 | -87.59132 | 5993 ft | 162 kts | 351° |
| 2026-05-04 01:12 | 14.23303 | -87.59316 | 5699 ft | 160 kts | 351° |
| 2026-05-04 01:12 | 14.24394 | -87.59512 | 5315 ft | 159 kts | 351° |
| 2026-05-04 01:12 | 14.25489 | -87.59716 | 4872 ft | 162 kts | 351° |
| 2026-05-04 01:13 | 14.26597 | -87.59921 | 4473 ft | 161 kts | 350° |
| 2026-05-04 01:13 | 14.27618 | -87.60114 | 4347 ft | 138 kts | 350° |
| 2026-05-04 01:13 | 14.28532 | -87.60288 | 4096 ft | 131 kts | 349° |
| 2026-05-04 01:13 | 14.29425 | -87.60457 | 3788 ft | 130 kts | 349° |
| 2026-05-04 01:14 | 14.30310 | -87.60624 | 3482 ft | 129 kts | 349° |
| 2026-05-04 01:14 | 14.31176 | -87.60784 | 3232 ft | 125 kts | 350° |
| 2026-05-04 01:14 | 14.32051 | -87.60963 | 3116 ft | 130 kts | 349° |
| 2026-05-04 01:14 | 14.32947 | -87.61121 | 2948 ft | 129 kts | 351° |
| 2026-05-04 01:15 | 14.33833 | -87.61270 | 2743 ft | 128 kts | 350° |
| 2026-05-04 01:15 | 14.34697 | -87.61441 | 2593 ft | 128 kts | 349° |
| 2026-05-04 01:15 | 14.35579 | -87.61602 | 2437 ft | 127 kts | 349° |
| 2026-05-04 01:15 | 14.36457 | -87.61780 | 2252 ft | 129 kts | 349° |
| 2026-05-04 01:16 | 14.37337 | -87.61944 | 2092 ft | 128 kts | 349° |
| 2026-05-04 01:16 | 14.38131 | -87.62098 | 2071 ft | 86 kts | 350° |
| 2026-05-04 01:16 | 14.38495 | -87.62163 | 2070 ft | 41 kts | 349° |
| 2026-05-04 01:16 | 14.38745 | -87.62211 | 2069 ft | 24 kts | 349° |
| 2026-05-04 01:17 | 14.38820 | -87.62192 | 2069 ft | 5 kts | 53° |
| 2026-05-04 01:17 | 14.38837 | -87.62130 | 2069 ft | 11 kts | 77° |
| 2026-05-04 01:17 | 14.38856 | -87.62059 | 2070 ft | 11 kts | 59° |
| 2026-05-04 01:17 | 14.38922 | -87.62048 | 2071 ft | 8 kts | 349° |
| 2026-05-04 01:18 | 14.38968 | -87.62019 | 2071 ft | 10 kts | 60° |
| 2026-05-04 01:18 | 14.38984 | -87.61953 | 2071 ft | 7 kts | 77° |
| 2026-05-04 01:18 | 14.39017 | -87.61913 | 2071 ft | 9 kts | 12° |
| 2026-05-04 01:18 | 14.39034 | -87.61908 | 2071 ft | 3 kts | 27° |
| 2026-05-04 01:19 | 14.39049 | -87.61882 | 2071 ft | 6 kts | 79° |
| 2026-05-04 01:19 | 14.39053 | -87.61859 | 2071 ft | 1 kts | 79° |
| 2026-05-04 01:19 | 14.39057 | -87.61838 | 2071 ft | 3 kts | 79° |
| 2026-05-04 01:19 | 14.39057 | -87.61837 | 2071 ft | 0 kts | 79° |